Time;durP1;ratioP1;P1;durP2;ratioP2;P2;SDS_P1;SDS_P2;PMS_P1;PMS_P2;Temp;Humidity;BMP_temperature;BMP_pressure;BME280_temperature;BME280_humidity;BME280_pressure;Samples;Min_cycle;Max_cycle;Signal;HPM_P1;HPM_P2
2023/04/20 00:02:30;;;;;;;4.85;2.58;;;7.40;91.40;;;;;;7304573;32;20216;-55
2023/04/20 00:06:33;;;;;;;5.07;2.17;;;7.40;91.60;;;;;;7303749;32;20748;-55
2023/04/20 00:10:34;;;;;;;8.00;2.70;;;7.30;91.20;;;;;;7302915;32;20233;-55
2023/04/20 00:14:36;;;;;;;5.50;2.75;;;7.40;90.40;;;;;;7302221;32;20133;-55
2023/04/20 00:18:39;;;;;;;7.70;2.50;;;7.30;91.20;;;;;;7300084;32;20158;-54
2023/04/20 00:22:40;;;;;;;3.72;2.30;;;7.30;90.50;;;;;;7299063;32;20230;-55
2023/04/20 00:26:42;;;;;;;7.75;2.55;;;7.30;90.50;;;;;;7296282;32;20146;-54
2023/04/20 00:30:44;;;;;;;6.05;2.45;;;7.20;91.60;;;;;;7302235;32;20120;-54
2023/04/20 00:34:45;;;;;;;5.05;2.37;;;7.20;91.30;;;;;;7305110;32;20100;-54
2023/04/20 00:38:47;;;;;;;6.32;2.50;;;7.00;91.80;;;;;;7301689;32;20122;-54
2023/04/20 00:42:49;;;;;;;5.00;2.15;;;6.90;93.90;;;;;;7304160;32;20206;-54
2023/04/20 00:46:53;;;;;;;4.45;2.50;;;6.80;94.10;;;;;;7300157;32;20210;-54
2023/04/20 00:50:55;;;;;;;6.30;2.55;;;6.80;94.50;;;;;;7297438;32;20205;-54
2023/04/20 00:54:57;;;;;;;7.37;2.80;;;6.70;94.50;;;;;;7299919;32;20211;-54
2023/04/20 00:59:00;;;;;;;10.02;3.05;;;6.70;95.60;;;;;;7308354;32;20115;-53
2023/04/20 01:03:02;;;;;;;7.30;2.53;;;6.60;95.80;;;;;;7302131;32;20556;-54
2023/04/20 01:07:04;;;;;;;4.22;2.60;;;6.50;95.80;;;;;;7302988;32;20901;-54
2023/04/20 01:11:06;;;;;;;3.80;2.33;;;6.40;97.00;;;;;;7298030;32;20217;-53
2023/04/20 01:15:08;;;;;;;7.28;2.80;;;6.30;96.90;;;;;;7297277;32;20262;-54
2023/04/20 01:19:10;;;;;;;4.57;2.35;;;6.30;96.40;;;;;;7301269;32;20172;-54
2023/04/20 01:23:12;;;;;;;5.70;2.70;;;6.20;99.90;;;;;;7297026;32;20577;-54
2023/04/20 01:27:15;;;;;;;6.18;2.55;;;6.10;98.60;;;;;;7297197;32;20100;-54
2023/04/20 01:31:17;;;;;;;4.35;2.20;;;5.90;99.40;;;;;;7299154;32;20093;-54
2023/04/20 01:35:19;;;;;;;4.78;2.65;;;5.80;99.40;;;;;;7296780;32;20112;-54
2023/04/20 01:39:21;;;;;;;6.85;2.40;;;5.80;99.90;;;;;;7296625;32;20216;-54
2023/04/20 01:43:23;;;;;;;9.40;2.53;;;5.70;99.90;;;;;;7297011;32;20112;-54
2023/04/20 01:47:25;;;;;;;4.55;2.58;;;5.60;99.90;;;;;;7300505;32;20169;-54
2023/04/20 01:51:26;;;;;;;5.70;2.60;;;5.40;99.90;;;;;;7311091;32;20853;-54
2023/04/20 01:55:28;;;;;;;4.25;2.25;;;5.30;99.90;;;;;;7306892;32;20214;-54
2023/04/20 01:59:30;;;;;;;5.15;2.47;;;5.10;99.90;;;;;;7300548;32;20203;-54
2023/04/20 02:03:31;;;;;;;6.40;2.30;;;5.10;99.90;;;;;;7301706;32;20260;-54
2023/04/20 02:07:33;;;;;;;4.20;2.22;;;5.20;99.90;;;;;;7300198;32;20215;-54
2023/04/20 02:11:35;;;;;;;5.20;1.98;;;5.10;99.90;;;;;;7300959;32;20806;-54
2023/04/20 02:15:37;;;;;;;5.43;2.75;;;5.10;99.90;;;;;;7306312;32;20159;-54
2023/04/20 02:19:39;;;;;;;4.10;2.50;;;5.00;99.90;;;;;;7303291;32;20108;-53
2023/04/20 02:23:40;;;;;;;5.20;2.97;;;5.00;99.90;;;;;;7304074;32;20270;-54
2023/04/20 02:27:48;;;;;;;5.97;2.83;;;5.00;99.90;;;;;;7299637;32;20126;-54
2023/04/20 02:31:50;;;;;;;6.28;3.20;;;5.00;99.90;;;;;;7298229;32;20832;-54
2023/04/20 02:35:52;;;;;;;8.77;2.92;;;5.00;99.90;;;;;;7301760;32;20645;-54
2023/04/20 02:39:53;;;;;;;6.78;2.90;;;5.00;99.90;;;;;;7300625;32;20302;-54
2023/04/20 02:43:55;;;;;;;4.75;2.75;;;5.00;99.90;;;;;;7320061;32;20588;-54
2023/04/20 02:47:57;;;;;;;8.63;2.70;;;5.00;99.90;;;;;;7305092;32;20123;-54
2023/04/20 02:51:59;;;;;;;5.55;2.80;;;5.10;99.90;;;;;;7303114;32;20155;-54
2023/04/20 02:56:00;;;;;;;8.70;3.03;;;5.10;99.90;;;;;;7304170;32;20248;-54
2023/04/20 03:00:02;;;;;;;6.75;2.45;;;5.20;99.90;;;;;;7301000;32;20221;-54
2023/04/20 03:04:04;;;;;;;3.25;2.45;;;5.20;99.90;;;;;;7302780;32;20201;-54
2023/04/20 03:08:06;;;;;;;4.07;2.62;;;5.20;99.90;;;;;;7303405;32;20107;-54
2023/04/20 03:12:07;;;;;;;5.47;2.78;;;5.10;99.90;;;;;;7302745;32;20214;-53
2023/04/20 03:16:09;;;;;;;7.87;2.90;;;5.20;99.90;;;;;;7303655;32;20353;-54
2023/04/20 03:20:12;;;;;;;7.20;2.80;;;5.30;99.90;;;;;;7303569;32;20178;-53
2023/04/20 03:24:15;;;;;;;5.57;3.10;;;5.30;99.90;;;;;;7300276;32;20103;-53
2023/04/20 03:28:17;;;;;;;5.37;2.78;;;5.40;99.90;;;;;;7303385;32;20092;-54
2023/04/20 03:32:19;;;;;;;5.25;2.45;;;5.50;99.90;;;;;;7304989;32;20248;-53
2023/04/20 03:36:21;;;;;;;8.45;2.80;;;5.60;99.90;;;;;;7311106;32;20216;-53
2023/04/20 03:40:23;;;;;;;4.07;2.28;;;5.70;99.90;;;;;;7303965;32;20108;-54
2023/04/20 03:44:25;;;;;;;4.50;2.53;;;5.80;99.90;;;;;;7314617;32;20127;-54
2023/04/20 03:48:26;;;;;;;4.62;2.65;;;5.90;99.90;;;;;;7308409;32;20799;-54
2023/04/20 03:52:28;;;;;;;7.18;2.62;;;6.00;99.90;;;;;;7300876;32;20193;-54
2023/04/20 03:56:30;;;;;;;6.65;2.90;;;6.10;99.90;;;;;;7304240;32;20131;-54
2023/04/20 04:00:32;;;;;;;7.55;2.90;;;6.20;99.90;;;;;;7302365;32;20134;-54
2023/04/20 04:04:33;;;;;;;6.07;2.95;;;6.30;99.90;;;;;;7310788;32;20170;-54
2023/04/20 04:08:35;;;;;;;5.65;2.45;;;6.30;99.90;;;;;;7308402;32;20105;-56
2023/04/20 04:12:37;;;;;;;8.00;3.10;;;6.30;99.90;;;;;;7315351;32;20096;-54
2023/04/20 04:16:39;;;;;;;3.65;2.78;;;6.30;99.90;;;;;;7305043;32;20170;-54
2023/04/20 04:20:41;;;;;;;6.28;3.70;;;6.30;99.90;;;;;;7318658;32;20668;-54
2023/04/20 04:24:42;;;;;;;6.90;3.08;;;6.30;99.90;;;;;;7305531;32;20130;-54
2023/04/20 04:28:44;;;;;;;8.55;3.47;;;6.30;99.90;;;;;;7303380;32;20092;-54
2023/04/20 04:32:47;;;;;;;5.72;3.67;;;6.30;99.90;;;;;;7300329;32;20108;-54
2023/04/20 04:36:49;;;;;;;5.55;3.40;;;6.30;99.90;;;;;;7305685;32;20145;-54
2023/04/20 04:40:52;;;;;;;10.18;3.95;;;6.40;99.90;;;;;;7321300;32;20205;-53
2023/04/20 04:44:55;;;;;;;11.12;4.03;;;6.40;99.90;;;;;;7298074;32;20322;-54
2023/04/20 04:48:59;;;;;;;6.12;3.47;;;6.50;99.90;;;;;;7304150;32;20279;-56
2023/04/20 04:53:01;;;;;;;5.43;3.87;;;6.50;99.90;;;;;;7298928;32;20123;-56
2023/04/20 04:57:03;;;;;;;8.20;3.97;;;6.50;99.90;;;;;;7306881;32;20210;-56
2023/04/20 05:01:05;;;;;;;5.80;3.95;;;6.60;99.90;;;;;;7301452;32;20763;-57
2023/04/20 05:05:07;;;;;;;14.00;6.85;;;6.60;99.90;;;;;;7302095;32;20470;-56
2023/04/20 05:09:10;;;;;;;7.35;4.55;;;6.60;99.90;;;;;;7305509;32;20118;-56
2023/04/20 05:13:12;;;;;;;9.50;4.97;;;6.70;99.90;;;;;;7307259;32;20258;-57
2023/04/20 05:17:14;;;;;;;7.12;4.50;;;6.70;99.90;;;;;;7300553;32;20590;-57
2023/04/20 05:21:15;;;;;;;11.10;5.07;;;6.70;99.90;;;;;;7303427;32;20464;-57
2023/04/20 05:25:17;;;;;;;10.02;4.90;;;6.80;99.90;;;;;;7305645;32;20122;-57
2023/04/20 05:29:19;;;;;;;8.38;4.87;;;6.80;99.90;;;;;;7311099;32;20504;-57
2023/04/20 05:33:21;;;;;;;10.98;4.50;;;6.70;99.90;;;;;;7302803;32;20138;-57
2023/04/20 05:37:23;;;;;;;8.45;5.30;;;6.80;99.90;;;;;;7315410;32;20104;-57
2023/04/20 05:41:27;;;;;;;14.25;5.35;;;6.90;99.90;;;;;;7309472;32;20330;-58
2023/04/20 05:45:29;;;;;;;7.53;5.43;;;6.90;99.90;;;;;;7304272;32;20120;-58
2023/04/20 05:49:31;;;;;;;8.07;4.55;;;6.90;99.90;;;;;;7301802;32;20243;-57
2023/04/20 05:53:34;;;;;;;8.43;4.62;;;6.90;99.90;;;;;;7308062;32;20129;-58
2023/04/20 05:57:41;;;;;;;8.20;5.00;;;6.90;99.90;;;;;;7305576;32;20308;-58
2023/04/20 06:01:43;;;;;;;8.05;4.62;;;6.90;99.90;;;;;;7302052;32;20120;-57
2023/04/20 06:05:44;;;;;;;9.40;4.72;;;6.90;99.90;;;;;;7303396;32;20717;-58
2023/04/20 06:09:46;;;;;;;6.00;4.15;;;7.00;99.90;;;;;;7306120;32;20282;-57
2023/04/20 06:13:48;;;;;;;6.45;4.32;;;6.90;99.90;;;;;;7298593;32;20111;-57
2023/04/20 06:17:49;;;;;;;8.50;4.60;;;6.90;99.90;;;;;;7306513;32;20176;-57
2023/04/20 06:21:51;;;;;;;5.95;4.30;;;6.80;99.90;;;;;;7305955;32;20234;-58
2023/04/20 06:25:53;;;;;;;8.25;5.00;;;6.90;99.90;;;;;;7295782;32;20262;-58
2023/04/20 06:29:55;;;;;;;9.25;5.43;;;7.00;99.90;;;;;;7307816;32;20171;-57
2023/04/20 06:33:57;;;;;;;9.65;6.22;;;7.00;99.90;;;;;;7300125;32;20306;-57
2023/04/20 06:38:01;;;;;;;9.77;6.25;;;7.00;99.90;;;;;;7298596;32;21045;-57
2023/04/20 06:42:03;;;;;;;11.05;8.05;;;7.10;99.90;;;;;;7304713;32;20230;-57
2023/04/20 06:46:05;;;;;;;9.65;8.15;;;7.20;99.90;;;;;;7310757;32;20567;-57
2023/04/20 06:50:08;;;;;;;10.60;8.05;;;7.30;99.90;;;;;;7307763;32;20153;-57
2023/04/20 06:54:10;;;;;;;12.75;8.35;;;7.30;99.90;;;;;;7306259;32;20293;-57
2023/04/20 06:58:12;;;;;;;14.50;7.97;;;7.20;99.90;;;;;;7307205;32;20211;-57
2023/04/20 07:02:13;;;;;;;9.48;8.13;;;7.10;99.90;;;;;;7306985;32;20266;-57
2023/04/20 07:06:16;;;;;;;11.05;7.53;;;6.90;99.90;;;;;;7309465;32;20249;-57
2023/04/20 07:10:17;;;;;;;8.70;6.78;;;6.90;99.90;;;;;;7307515;32;20137;-57
2023/04/20 07:14:19;;;;;;;8.38;6.72;;;6.80;99.90;;;;;;7305841;32;20122;-57
2023/04/20 07:18:21;;;;;;;8.60;6.30;;;6.70;99.90;;;;;;7302883;32;20133;-57
2023/04/20 07:22:23;;;;;;;8.65;7.18;;;6.70;99.90;;;;;;7302565;32;20243;-57
2023/04/20 07:26:25;;;;;;;11.70;7.65;;;6.70;99.90;;;;;;7301014;32;20107;-57
2023/04/20 07:30:27;;;;;;;10.25;7.15;;;6.70;99.90;;;;;;7300271;32;20223;-57
2023/04/20 07:34:28;;;;;;;9.75;7.55;;;6.80;99.90;;;;;;7299405;32;20107;-57
2023/04/20 07:38:30;;;;;;;8.05;6.80;;;7.00;99.90;;;;;;7319966;32;20245;-57
2023/04/20 07:42:33;;;;;;;9.55;6.78;;;6.90;99.90;;;;;;7302228;32;20274;-58
2023/04/20 07:46:35;;;;;;;8.23;7.28;;;6.80;99.90;;;;;;7309054;32;20130;-58
2023/04/20 07:50:37;;;;;;;9.48;7.18;;;6.90;99.90;;;;;;7304521;32;20274;-58
2023/04/20 07:54:39;;;;;;;11.15;7.82;;;6.80;99.90;;;;;;7310824;32;20602;-57
2023/04/20 07:58:41;;;;;;;12.07;7.85;;;6.90;99.90;;;;;;7305977;32;20701;-57
2023/04/20 08:02:43;;;;;;;9.95;7.55;;;6.90;99.90;;;;;;7310948;32;20433;-57
2023/04/20 08:06:45;;;;;;;11.82;8.15;;;6.90;99.90;;;;;;7305216;32;20621;-57
2023/04/20 08:10:46;;;;;;;11.57;8.00;;;6.90;99.90;;;;;;7304545;32;20561;-57
2023/04/20 08:14:48;;;;;;;10.70;8.23;;;6.90;99.90;;;;;;7305963;32;20127;-58
2023/04/20 08:18:50;;;;;;;9.30;7.80;;;7.00;99.90;;;;;;7303367;32;20163;-58
2023/04/20 08:22:52;;;;;;;11.75;7.70;;;7.00;99.90;;;;;;7314286;32;20595;-57
2023/04/20 08:26:53;;;;;;;9.43;7.70;;;7.10;99.90;;;;;;7317098;32;20116;-57
2023/04/20 08:30:55;;;;;;;11.55;9.18;;;7.10;99.90;;;;;;7306465;32;20104;-56
2023/04/20 08:34:57;;;;;;;12.02;9.07;;;7.00;99.90;;;;;;7321714;32;20180;-57
2023/04/20 08:39:11;;;;;;;10.60;7.80;;;7.00;99.90;;;;;;7303495;32;20131;-57
2023/04/20 08:43:12;;;;;;;10.63;7.90;;;7.00;99.90;;;;;;7316938;32;20210;-56
2023/04/20 08:47:14;;;;;;;11.32;8.13;;;6.80;99.90;;;;;;7309825;32;20145;-56
2023/04/20 08:51:16;;;;;;;9.90;8.40;;;6.80;99.90;;;;;;7306427;32;20578;-57
2023/04/20 08:55:18;;;;;;;10.95;7.72;;;6.80;99.90;;;;;;7309974;32;20941;-56
2023/04/20 08:59:20;;;;;;;11.32;7.55;;;7.00;99.90;;;;;;7318114;32;20107;-56
2023/04/20 09:03:36;;;;;;;11.18;7.35;;;7.10;99.90;;;;;;7296663;32;20104;-56
2023/04/20 09:07:38;;;;;;;13.20;8.02;;;7.30;99.90;;;;;;7302731;32;20190;-56
2023/04/20 09:11:40;;;;;;;10.75;7.87;;;7.10;99.90;;;;;;7304326;32;20352;-56
2023/04/20 09:15:42;;;;;;;10.18;7.75;;;7.00;99.90;;;;;;7308904;32;20352;-56
2023/04/20 09:19:51;;;;;;;10.90;8.30;;;6.80;99.90;;;;;;7301099;32;20564;-59
2023/04/20 09:24:06;;;;;;;11.65;9.73;;;6.80;99.90;;;;;;7307013;32;20230;-56
2023/04/20 09:28:09;;;;;;;14.90;11.12;;;6.70;99.90;;;;;;7301334;32;20145;-56
2023/04/20 09:32:23;;;;;;;15.05;10.07;;;6.70;99.90;;;;;;7305350;32;20506;-56
2023/04/20 09:36:49;;;;;;;11.52;9.20;;;7.40;99.90;;;;;;7306123;32;20178;-56
2023/04/20 09:40:51;;;;;;;8.15;7.28;;;7.90;99.90;;;;;;7301560;32;20112;-56
2023/04/20 09:44:53;;;;;;;12.50;8.57;;;7.80;99.90;;;;;;7303516;32;20206;-57
2023/04/20 09:48:55;;;;;;;9.95;8.15;;;7.70;99.90;;;;;;7305438;32;20134;-56
2023/04/20 09:52:57;;;;;;;12.00;8.32;;;8.30;99.90;;;;;;7305049;32;20526;-57
2023/04/20 09:57:02;;;;;;;9.90;7.97;;;8.30;99.90;;;;;;7304235;32;20108;-57
2023/04/20 10:01:07;;;;;;;7.90;6.43;;;8.70;99.90;;;;;;7296034;32;20525;-56
2023/04/20 10:05:09;;;;;;;7.30;6.15;;;8.50;99.90;;;;;;7306663;32;20221;-57
2023/04/20 10:09:24;;;;;;;8.55;6.65;;;8.70;99.90;;;;;;7302533;32;20136;-57
2023/04/20 10:13:32;;;;;;;7.72;6.10;;;8.90;99.90;;;;;;7306756;32;20669;-57
2023/04/20 10:17:34;;;;;;;6.85;5.60;;;8.80;99.90;;;;;;7308190;32;20162;-58
2023/04/20 10:21:47;;;;;;;5.47;4.47;;;9.10;99.90;;;;;;7310144;32;20659;-57
2023/04/20 10:25:57;;;;;;;7.20;5.35;;;9.00;99.90;;;;;;7323689;32;20130;-57
2023/04/20 10:30:12;;;;;;;6.10;4.12;;;8.90;99.90;;;;;;7312655;32;20499;-56
2023/04/20 10:34:13;;;;;;;5.37;4.43;;;8.60;99.90;;;;;;7305459;32;20183;-56
2023/04/20 10:38:30;;;;;;;4.70;3.72;;;8.10;99.90;;;;;;7326531;32;20133;-56
2023/04/20 10:42:41;;;;;;;4.07;3.15;;;8.30;99.90;;;;;;7322500;32;20315;-56
2023/04/20 10:46:48;;;;;;;4.62;4.12;;;8.10;99.90;;;;;;7303195;32;20105;-56
2023/04/20 10:50:50;;;;;;;5.60;4.22;;;8.50;99.90;;;;;;7296460;32;20206;-56
2023/04/20 10:54:52;;;;;;;4.62;3.85;;;9.40;99.90;;;;;;7313091;32;20124;-57
2023/04/20 10:58:54;;;;;;;4.65;3.42;;;10.10;99.90;;;;;;7305513;32;20134;-56
2023/04/20 11:02:56;;;;;;;4.87;3.67;;;10.00;99.90;;;;;;7307893;32;20508;-57
2023/04/20 11:07:06;;;;;;;4.82;3.70;;;9.60;99.90;;;;;;7302725;32;20758;-57
2023/04/20 11:11:23;;;;;;;2.90;2.25;;;9.60;99.90;;;;;;7300675;32;20111;-57
2023/04/20 11:15:32;;;;;;;;;;;9.70;99.90;;;;;;7307062;32;20418;-57
2023/04/20 11:19:35;;;;;;;4.45;3.05;;;9.50;99.90;;;;;;7304895;32;20002;-57
2023/04/20 11:23:37;;;;;;;4.40;2.12;;;9.10;99.90;;;;;;7304362;32;20141;-56
2023/04/20 11:27:41;;;;;;;3.17;2.03;;;9.30;99.90;;;;;;7301032;32;20131;-57
2023/04/20 11:31:50;;;;;;;3.37;2.62;;;9.20;99.90;;;;;;7305191;32;20596;-58
2023/04/20 11:35:52;;;;;;;3.45;2.30;;;9.10;99.90;;;;;;7308028;32;20133;-56
2023/04/20 11:40:01;;;;;;;2.80;2.10;;;8.80;99.90;;;;;;7301201;32;20576;-56
2023/04/20 11:44:05;;;;;;;2.80;2.12;;;9.00;99.90;;;;;;7311284;32;20215;-57
2023/04/20 11:48:07;;;;;;;2.42;2.10;;;9.70;99.90;;;;;;7302492;32;20300;-56
2023/04/20 11:52:08;;;;;;;2.75;1.80;;;9.80;99.90;;;;;;7302929;32;20850;-58
2023/04/20 11:56:10;;;;;;;3.75;2.78;;;9.90;99.90;;;;;;7300647;32;20119;-56
2023/04/20 12:00:13;;;;;;;2.65;2.45;;;10.10;99.90;;;;;;7313927;32;20262;-56
2023/04/20 12:04:15;;;;;;;3.60;2.65;;;10.10;99.90;;;;;;7308635;32;20162;-56
2023/04/20 12:08:17;;;;;;;3.53;1.90;;;10.60;99.90;;;;;;7310025;32;20289;-56
2023/04/20 12:12:19;;;;;;;3.03;1.90;;;11.30;99.90;;;;;;7304699;32;20104;-56
2023/04/20 12:16:21;;;;;;;3.40;1.95;;;10.50;99.90;;;;;;7297938;32;20111;-55
2023/04/20 12:20:23;;;;;;;2.22;2.00;;;10.70;99.90;;;;;;7300103;32;20207;-56
2023/04/20 12:24:25;;;;;;;2.05;1.85;;;12.10;99.90;;;;;;7299695;32;20261;-55
2023/04/20 12:28:26;;;;;;;3.67;1.77;;;12.30;99.90;;;;;;7296947;32;20227;-56
2023/04/20 12:32:28;;;;;;;2.85;1.95;;;12.40;99.90;;;;;;7299670;32;20104;-56
2023/04/20 12:36:31;;;;;;;2.20;1.95;;;11.50;99.90;;;;;;7311176;32;20276;-56
2023/04/20 12:40:33;;;;;;;2.33;1.95;;;10.90;99.90;;;;;;7313934;32;20242;-56
2023/04/20 12:44:35;;;;;;;3.78;2.15;;;11.70;99.90;;;;;;7306081;32;20131;-57
2023/04/20 12:48:37;;;;;;;3.15;2.35;;;12.20;99.90;;;;;;7302940;32;20104;-57
2023/04/20 12:52:39;;;;;;;3.50;2.50;;;12.60;99.90;;;;;;7311902;32;20138;-57
2023/04/20 12:56:40;;;;;;;3.70;2.70;;;12.60;99.90;;;;;;7304818;32;20211;-56
2023/04/20 13:00:42;;;;;;;4.37;2.53;;;12.80;99.90;;;;;;7300355;32;20229;-57
2023/04/20 13:04:49;;;;;;;3.83;2.60;;;12.00;99.90;;;;;;7301740;32;20111;-56
2023/04/20 13:08:50;;;;;;;3.00;2.17;;;11.60;99.90;;;;;;7303745;32;20315;-58
2023/04/20 13:12:52;;;;;;;3.65;2.67;;;11.60;99.90;;;;;;7304218;32;20495;-57
2023/04/20 13:16:54;;;;;;;4.47;2.85;;;11.60;99.90;;;;;;7303283;32;20532;-57
2023/04/20 13:20:56;;;;;;;2.90;2.28;;;11.60;99.90;;;;;;7310665;32;20715;-57
2023/04/20 13:24:58;;;;;;;3.35;2.72;;;11.10;99.90;;;;;;7315654;32;20834;-56
2023/04/20 13:28:59;;;;;;;3.10;2.50;;;10.90;99.90;;;;;;7309712;32;20147;-56
2023/04/20 13:33:01;;;;;;;2.95;2.50;;;11.00;99.90;;;;;;7313642;32;20110;-56
2023/04/20 13:37:03;;;;;;;5.75;2.80;;;11.10;99.90;;;;;;7310268;32;20198;-56
2023/04/20 13:41:05;;;;;;;7.62;2.92;;;11.20;99.90;;;;;;7313675;32;20136;-55
2023/04/20 13:45:07;;;;;;;5.32;2.95;;;11.60;99.90;;;;;;7308713;32;20112;-56
2023/04/20 13:49:10;;;;;;;5.90;3.45;;;11.90;99.90;;;;;;7316435;32;20152;-56
2023/04/20 13:53:14;;;;;;;5.22;3.25;;;13.40;99.90;;;;;;7307894;32;20127;-56
2023/04/20 13:57:16;;;;;;;4.82;3.30;;;13.80;99.90;;;;;;7303570;32;20247;-56
2023/04/20 14:01:17;;;;;;;4.28;3.45;;;13.90;99.90;;;;;;7304251;32;20130;-57
2023/04/20 14:05:19;;;;;;;4.95;3.20;;;14.40;98.80;;;;;;7304479;32;20112;-56
2023/04/20 14:09:21;;;;;;;5.82;3.05;;;13.70;97.60;;;;;;7304250;32;20169;-56
2023/04/20 14:13:23;;;;;;;5.75;3.10;;;12.50;99.80;;;;;;7302729;32;20213;-56
2023/04/20 14:17:25;;;;;;;5.55;3.00;;;13.40;98.90;;;;;;7312063;32;20200;-57
2023/04/20 14:21:27;;;;;;;5.57;3.30;;;14.00;93.70;;;;;;7304560;32;20199;-56
2023/04/20 14:25:29;;;;;;;4.87;3.78;;;13.50;93.00;;;;;;7311988;32;20201;-56
2023/04/20 14:29:31;;;;;;;5.32;3.50;;;14.10;94.80;;;;;;7313208;32;20116;-57
2023/04/20 14:33:32;;;;;;;4.80;3.65;;;14.80;93.70;;;;;;7310714;32;20297;-57
2023/04/20 14:37:34;;;;;;;4.50;3.65;;;14.10;92.40;;;;;;7301281;32;20152;-56
2023/04/20 14:41:35;;;;;;;3.92;3.50;;;13.50;93.60;;;;;;7304644;32;20129;-57
2023/04/20 14:45:40;;;;;;;5.25;3.17;;;12.80;93.10;;;;;;7307264;32;20289;-57
2023/04/20 14:49:43;;;;;;;7.53;3.97;;;12.80;95.60;;;;;;7302355;32;20309;-58
2023/04/20 14:53:45;;;;;;;5.32;4.47;;;13.30;94.10;;;;;;7304901;32;20528;-58
2023/04/20 14:57:46;;;;;;;7.97;3.78;;;13.60;92.70;;;;;;7312436;32;20320;-57
2023/04/20 15:01:48;;;;;;;7.43;4.70;;;13.00;95.10;;;;;;7304769;32;20199;-58
2023/04/20 15:06:04;;;;;;;5.87;5.25;;;12.90;94.70;;;;;;7299713;32;20545;-58
2023/04/20 15:10:06;;;;;;;6.50;4.53;;;12.30;96.00;;;;;;7305040;32;20134;-56
2023/04/20 15:14:08;;;;;;;18.23;11.77;;;11.80;97.30;;;;;;7294963;32;20417;-57
2023/04/20 15:18:09;;;;;;;6.82;5.45;;;11.70;98.80;;;;;;7298250;32;20237;-56
2023/04/20 15:22:12;;;;;;;7.15;5.47;;;11.70;99.00;;;;;;7305914;32;20570;-57
2023/04/20 15:26:14;;;;;;;7.10;5.12;;;12.00;99.10;;;;;;7304723;32;20198;-57
2023/04/20 15:30:15;;;;;;;5.35;4.57;;;11.80;99.20;;;;;;7308650;32;20130;-57
2023/04/20 15:34:17;;;;;;;6.30;5.18;;;11.60;99.90;;;;;;7301245;32;20158;-59
2023/04/20 15:38:19;;;;;;;7.43;6.25;;;11.60;99.90;;;;;;7302691;32;20126;-57
2023/04/20 15:42:21;;;;;;;7.45;6.07;;;11.40;99.60;;;;;;7305300;32;20624;-59
2023/04/20 15:46:25;;;;;;;8.48;5.90;;;11.70;99.90;;;;;;7303617;32;20595;-59
2023/04/20 15:50:27;;;;;;;8.40;6.10;;;11.70;99.90;;;;;;7309200;32;20200;-59
2023/04/20 15:54:29;;;;;;;7.30;5.50;;;11.70;99.90;;;;;;7301660;32;20150;-57
2023/04/20 15:58:30;;;;;;;6.37;5.37;;;11.60;99.40;;;;;;7312044;32;20614;-56
2023/04/20 16:02:32;;;;;;;8.73;5.35;;;11.50;99.40;;;;;;7303107;32;20126;-56
2023/04/20 16:06:35;;;;;;;8.93;5.35;;;11.40;97.70;;;;;;7302057;32;20660;-57
2023/04/20 16:10:37;;;;;;;7.00;5.05;;;11.20;97.60;;;;;;7301419;32;20137;-57
2023/04/20 16:14:39;;;;;;;6.65;5.43;;;11.20;97.50;;;;;;7303987;32;20215;-57
2023/04/20 16:18:41;;;;;;;6.10;4.72;;;11.20;96.90;;;;;;7304497;32;20264;-57
2023/04/20 16:22:42;;;;;;;6.47;5.05;;;11.20;97.70;;;;;;7303615;32;21001;-58
2023/04/20 16:26:45;;;;;;;8.70;5.90;;;11.30;97.00;;;;;;7288808;32;20938;-58
2023/04/20 16:30:47;;;;;;;7.97;5.05;;;11.30;97.40;;;;;;7300193;32;20134;-58
2023/04/20 16:34:49;;;;;;;6.93;5.40;;;11.30;97.50;;;;;;7309746;32;20294;-58
2023/04/20 16:38:51;;;;;;;5.97;4.80;;;11.30;98.80;;;;;;7303509;32;20108;-58
2023/04/20 16:42:52;;;;;;;8.05;5.53;;;11.30;99.20;;;;;;7303852;32;20654;-58
2023/04/20 16:46:54;;;;;;;6.70;4.93;;;11.30;97.60;;;;;;7307164;32;20190;-58
2023/04/20 16:50:56;;;;;;;6.53;5.12;;;11.30;97.30;;;;;;7303755;32;20533;-58
2023/04/20 16:54:58;;;;;;;5.75;4.70;;;11.20;96.90;;;;;;7307715;32;20107;-57
2023/04/20 16:59:00;;;;;;;6.43;5.00;;;11.20;98.70;;;;;;7304889;32;20104;-57
2023/04/20 17:03:09;;;;;;;6.60;5.20;;;11.20;97.80;;;;;;7298999;32;20150;-57
2023/04/20 17:07:12;;;;;;;5.65;4.53;;;11.10;98.40;;;;;;7304966;32;20230;-57
2023/04/20 17:11:14;;;;;;;5.50;4.37;;;11.20;99.10;;;;;;7312399;32;20222;-57
2023/04/20 17:15:16;;;;;;;4.53;3.58;;;11.30;99.20;;;;;;7301370;32;20137;-58
2023/04/20 17:19:19;;;;;;;4.55;3.87;;;11.30;99.10;;;;;;7300385;32;20246;-58
2023/04/20 17:23:21;;;;;;;5.03;4.20;;;11.40;99.70;;;;;;7304492;32;20231;-58
2023/04/20 17:27:23;;;;;;;5.78;4.60;;;11.40;99.90;;;;;;7313500;32;20175;-57
2023/04/20 17:31:24;;;;;;;7.47;4.28;;;11.40;99.90;;;;;;7309451;32;20127;-58
2023/04/20 17:35:26;;;;;;;5.28;4.40;;;11.10;99.90;;;;;;7312086;32;20116;-57
2023/04/20 17:39:28;;;;;;;5.30;4.30;;;10.90;99.90;;;;;;7315032;32;20207;-57
2023/04/20 17:43:30;;;;;;;5.53;4.93;;;10.60;99.90;;;;;;7301996;32;20144;-57
2023/04/20 17:47:31;;;;;;;6.30;4.53;;;10.40;99.90;;;;;;7310515;32;20224;-57
2023/04/20 17:51:33;;;;;;;5.20;4.62;;;10.20;99.90;;;;;;7300119;32;20884;-56
2023/04/20 17:55:35;;;;;;;5.30;4.47;;;10.00;99.90;;;;;;7298807;32;20123;-56
2023/04/20 17:59:37;;;;;;;8.27;4.72;;;9.80;99.90;;;;;;7300610;32;20187;-57
2023/04/20 18:03:39;;;;;;;5.25;4.62;;;9.60;99.90;;;;;;7298820;32;20139;-57
2023/04/20 18:07:41;;;;;;;5.72;4.85;;;9.50;99.90;;;;;;7307951;32;20235;-57
2023/04/20 18:11:43;;;;;;;5.53;4.32;;;9.40;99.90;;;;;;7300372;32;20162;-56
2023/04/20 18:15:44;;;;;;;8.55;4.93;;;9.30;99.90;;;;;;7302028;32;20785;-57
2023/04/20 18:19:46;;;;;;;7.62;5.55;;;9.20;99.90;;;;;;7303823;32;20131;-56
2023/04/20 18:23:48;;;;;;;7.20;5.47;;;9.20;99.90;;;;;;7301154;32;20271;-56
2023/04/20 18:27:50;;;;;;;7.75;5.87;;;9.00;99.90;;;;;;7301593;32;20540;-57
2023/04/20 18:31:53;;;;;;;6.32;5.22;;;8.90;99.90;;;;;;7297734;32;20242;-57
2023/04/20 18:35:55;;;;;;;6.10;5.32;;;8.80;99.90;;;;;;7304093;32;20137;-57
2023/04/20 18:39:57;;;;;;;5.62;4.97;;;8.70;99.90;;;;;;7298714;32;20212;-57
2023/04/20 18:44:00;;;;;;;6.87;5.87;;;8.60;99.90;;;;;;7309063;32;20103;-57
2023/04/20 18:48:01;;;;;;;7.75;5.40;;;8.50;99.90;;;;;;7292147;32;20170;-55
2023/04/20 18:52:03;;;;;;;7.97;5.43;;;8.50;99.90;;;;;;7304154;32;20143;-55
2023/04/20 18:56:05;;;;;;;6.53;5.30;;;8.50;99.90;;;;;;7303173;32;20177;-57
2023/04/20 19:00:09;;;;;;;7.53;5.60;;;8.40;99.90;;;;;;7300789;32;20131;-55
2023/04/20 19:04:11;;;;;;;6.72;5.28;;;8.40;99.90;;;;;;7298674;32;20478;-55
2023/04/20 19:08:13;;;;;;;7.03;5.62;;;8.40;99.90;;;;;;7299324;32;20427;-55
2023/04/20 19:12:14;;;;;;;8.50;6.12;;;8.40;99.90;;;;;;7306036;32;20756;-55
2023/04/20 19:16:16;;;;;;;6.50;5.45;;;8.30;99.90;;;;;;7301843;32;20108;-56
2023/04/20 19:20:18;;;;;;;7.87;5.70;;;8.20;99.90;;;;;;7303635;32;20179;-56
2023/04/20 19:24:20;;;;;;;7.53;5.87;;;8.20;99.90;;;;;;7296343;32;20134;-56
2023/04/20 19:28:21;;;;;;;6.87;6.03;;;8.30;99.90;;;;;;7308903;32;20161;-56
2023/04/20 19:32:25;;;;;;;6.32;5.43;;;8.10;99.90;;;;;;7308244;32;20116;-56
2023/04/20 19:36:26;;;;;;;6.28;5.28;;;8.10;99.90;;;;;;7306527;32;20143;-57
2023/04/20 19:40:28;;;;;;;7.22;6.22;;;8.10;99.90;;;;;;7312346;32;20130;-57
2023/04/20 19:44:36;;;;;;;7.40;6.40;;;8.10;99.90;;;;;;7304440;32;20127;-55
2023/04/20 19:48:38;;;;;;;7.40;6.60;;;8.10;99.90;;;;;;7309382;32;20099;-56
2023/04/20 19:52:40;;;;;;;7.32;6.20;;;8.00;99.90;;;;;;7301621;32;20230;-56
2023/04/20 19:56:42;;;;;;;8.30;7.50;;;8.20;99.90;;;;;;7309079;32;20138;-55
2023/04/20 20:00:43;;;;;;;8.27;7.47;;;8.10;99.90;;;;;;7309503;32;20271;-56
2023/04/20 20:04:45;;;;;;;9.77;7.70;;;8.10;99.90;;;;;;7306725;32;20684;-56
2023/04/20 20:08:47;;;;;;;8.88;7.97;;;8.10;99.90;;;;;;7312468;32;20112;-57
2023/04/20 20:12:49;;;;;;;11.73;8.10;;;8.10;99.90;;;;;;7302356;32;20594;-56
2023/04/20 20:16:50;;;;;;;10.85;8.75;;;8.10;99.90;;;;;;7307197;32;20434;-55
2023/04/20 20:20:52;;;;;;;9.95;8.95;;;8.20;99.90;;;;;;7308111;32;20400;-55
2023/04/20 20:24:54;;;;;;;9.60;8.32;;;8.20;99.90;;;;;;7306647;32;20222;-56
2023/04/20 20:28:56;;;;;;;12.37;10.00;;;8.30;99.90;;;;;;7308160;32;20567;-56
2023/04/20 20:32:58;;;;;;;14.18;10.05;;;8.20;99.90;;;;;;7310229;32;20231;-57
2023/04/20 20:37:03;;;;;;;15.00;10.60;;;8.20;99.90;;;;;;7305954;32;20266;-56
2023/04/20 20:41:05;;;;;;;13.18;11.68;;;8.20;99.90;;;;;;7308031;32;20207;-57
2023/04/20 20:45:11;;;;;;;14.55;12.02;;;8.10;99.90;;;;;;7308325;32;20198;-57
2023/04/20 20:49:13;;;;;;;15.23;13.65;;;8.20;99.90;;;;;;7309532;32;20134;-57
2023/04/20 20:53:16;;;;;;;15.65;14.02;;;8.00;99.90;;;;;;7303156;32;20261;-56
2023/04/20 20:57:19;;;;;;;18.20;15.68;;;7.90;99.90;;;;;;7306520;32;20241;-56
2023/04/20 21:01:21;;;;;;;21.80;16.62;;;7.80;99.90;;;;;;7305756;32;20177;-55
2023/04/20 21:05:23;;;;;;;18.83;16.83;;;7.60;99.90;;;;;;7307013;32;20150;-55
2023/04/20 21:09:24;;;;;;;21.35;19.05;;;7.60;99.90;;;;;;7300552;32;20729;-55
2023/04/20 21:13:26;;;;;;;25.62;21.45;;;7.50;99.90;;;;;;7309157;32;20166;-56